createdAt,value
2023-05-02T00:00:18.570Z,25.65
2023-05-02T00:02:48.907Z,25.64
2023-05-02T00:05:19.044Z,25.64
2023-05-02T00:07:49.979Z,25.64
2023-05-02T00:10:23.330Z,25.63
2023-05-02T00:12:53.881Z,25.63
2023-05-02T00:15:23.521Z,25.63
2023-05-02T00:17:53.712Z,25.62
2023-05-02T00:20:24.407Z,25.61
2023-05-02T00:22:54.353Z,25.59
2023-05-02T00:25:25.930Z,25.59
2023-05-02T00:27:55.412Z,25.57
2023-05-02T00:30:25.637Z,25.57
2023-05-02T00:32:56.188Z,25.57
2023-05-02T00:35:26.287Z,25.56
2023-05-02T00:37:56.411Z,25.55
2023-05-02T00:40:28.764Z,25.53
2023-05-02T00:42:59.602Z,25.50
2023-05-02T00:45:30.182Z,25.48
2023-05-02T00:48:00.521Z,25.45
2023-05-02T00:50:33.083Z,25.43
2023-05-02T00:53:05.953Z,25.42
2023-05-02T00:55:37.961Z,25.39
2023-05-02T00:58:13.957Z,25.37
2023-05-02T01:01:05.385Z,25.36
2023-05-02T01:03:47.052Z,25.34
2023-05-02T01:06:48.734Z,25.30
2023-05-02T01:09:37.069Z,25.27
2023-05-02T01:12:26.564Z,25.25
2023-05-02T01:14:59.578Z,25.22
2023-05-02T01:17:35.478Z,25.20
2023-05-02T01:20:12.498Z,25.18
2023-05-02T01:22:44.282Z,25.16
2023-05-02T01:25:34.087Z,25.14
2023-05-02T01:28:23.554Z,25.11
2023-05-02T01:30:58.723Z,25.08
2023-05-02T01:33:31.001Z,25.07
2023-05-02T01:36:03.309Z,25.05
2023-05-02T01:38:37.266Z,25.04
2023-05-02T01:41:09.419Z,25.01
2023-05-02T01:43:42.658Z,25.01
2023-05-02T01:46:17.603Z,25.00
2023-05-02T01:48:51.315Z,25.00
2023-05-02T01:51:25.900Z,24.99
2023-05-02T01:53:57.409Z,24.98
2023-05-02T01:56:28.397Z,24.98
2023-05-02T01:59:01.748Z,24.97
2023-05-02T02:01:35.068Z,24.97
2023-05-02T02:04:09.428Z,24.95
2023-05-02T02:06:40.322Z,24.94
2023-05-02T02:09:11.479Z,24.92
2023-05-02T02:11:54.697Z,24.91
2023-05-02T02:14:30.717Z,24.89
2023-05-02T02:17:08.530Z,24.85
2023-05-02T02:19:42.553Z,24.84
2023-05-02T02:22:16.926Z,24.82
2023-05-02T02:24:51.001Z,24.80
2023-05-02T02:27:22.910Z,24.77
2023-05-02T02:29:52.732Z,24.76
2023-05-02T02:32:25.182Z,24.74
2023-05-02T02:34:55.664Z,24.71
2023-05-02T02:37:33.497Z,24.69
2023-05-02T02:40:14.581Z,24.65
2023-05-02T02:42:57.771Z,24.62
2023-05-02T02:45:40.600Z,24.59
2023-05-02T02:48:23.451Z,24.56
2023-05-02T02:51:14.405Z,24.55
2023-05-02T02:54:01.162Z,24.55
2023-05-02T02:56:41.908Z,24.57
2023-05-02T02:59:21.964Z,24.56
2023-05-02T03:02:09.305Z,24.58
2023-05-02T03:04:45.714Z,24.59
2023-05-02T03:07:16.727Z,24.58
2023-05-02T03:09:49.661Z,24.60
2023-05-02T03:12:19.776Z,24.60
2023-05-02T03:14:50.280Z,24.62
2023-05-02T03:17:20.728Z,24.63
2023-05-02T03:19:53.005Z,24.65
2023-05-02T03:22:22.849Z,24.66
2023-05-02T03:24:53.193Z,24.67
2023-05-02T03:27:23.298Z,24.69
2023-05-02T03:29:53.432Z,24.70
2023-05-02T03:32:23.148Z,24.72
2023-05-02T03:34:58.890Z,24.72
2023-05-02T03:37:29.478Z,24.74
2023-05-02T03:40:00.179Z,24.73
2023-05-02T03:42:30.736Z,24.71
2023-05-02T03:45:00.992Z,24.68
2023-05-02T03:47:31.602Z,24.67
2023-05-02T03:50:04.166Z,24.65
2023-05-02T03:52:35.413Z,24.65
2023-05-02T03:55:06.440Z,24.63
2023-05-02T03:57:36.454Z,24.61
2023-05-02T04:00:07.779Z,24.61
2023-05-02T04:02:38.578Z,24.59
2023-05-02T04:05:11.520Z,24.59
2023-05-02T04:07:41.714Z,24.56
2023-05-02T04:10:17.173Z,24.54
2023-05-02T04:12:47.431Z,24.53
2023-05-02T04:15:18.104Z,24.52
2023-05-02T04:17:48.496Z,24.54
2023-05-02T04:20:21.155Z,24.55
2023-05-02T04:22:51.169Z,24.57
2023-05-02T04:25:21.739Z,24.60
2023-05-02T04:27:51.952Z,24.63
2023-05-02T04:30:23.018Z,24.66
2023-05-02T04:32:54.046Z,24.67
2023-05-02T04:35:27.242Z,24.68
2023-05-02T04:37:57.604Z,24.70
2023-05-02T04:40:27.462Z,24.72
2023-05-02T04:42:57.806Z,24.73
2023-05-02T04:45:28.768Z,24.77
2023-05-02T04:47:59.341Z,24.79
2023-05-02T04:50:32.767Z,24.81
2023-05-02T04:53:03.146Z,24.84
2023-05-02T04:55:33.067Z,24.88
2023-05-02T04:58:05.021Z,24.90
2023-05-02T05:00:35.316Z,24.93
2023-05-02T05:03:05.187Z,24.97
2023-05-02T05:05:37.764Z,25.02
2023-05-02T05:08:08.406Z,25.06
2023-05-02T05:10:39.084Z,25.11
2023-05-02T05:13:09.470Z,25.17
2023-05-02T05:15:39.778Z,25.22
2023-05-02T05:18:09.905Z,25.29
2023-05-02T05:20:41.779Z,25.35
2023-05-02T05:23:12.104Z,25.40
2023-05-02T05:25:45.046Z,25.46
2023-05-02T05:28:15.450Z,25.52
2023-05-02T05:30:45.670Z,25.58
2023-05-02T05:33:16.041Z,25.63
2023-05-02T05:35:48.262Z,25.70
2023-05-02T05:38:18.472Z,25.75
2023-05-02T05:40:52.447Z,25.82
2023-05-02T05:43:22.672Z,25.88
2023-05-02T05:45:55.391Z,25.95
2023-05-02T05:48:26.458Z,25.99
2023-05-02T05:50:58.094Z,26.04
2023-05-02T05:53:28.414Z,26.10
2023-05-02T05:55:58.758Z,26.17
2023-05-02T05:58:29.129Z,26.24
2023-05-02T06:00:59.434Z,26.28
2023-05-02T06:03:29.853Z,26.34
2023-05-02T06:06:01.856Z,26.40
2023-05-02T06:08:32.158Z,26.46
2023-05-02T06:11:02.414Z,26.52
2023-05-02T06:13:32.371Z,26.57
2023-05-02T06:16:04.861Z,26.63
2023-05-02T06:18:34.898Z,26.67
2023-05-02T06:21:21.544Z,26.72
2023-05-02T06:23:52.023Z,26.75
2023-05-02T06:26:22.595Z,26.80
2023-05-02T06:28:52.798Z,26.82
2023-05-02T06:31:23.210Z,26.87
2023-05-02T06:33:53.568Z,26.91
2023-05-02T06:36:25.440Z,26.96
2023-05-02T06:38:55.718Z,26.98
2023-05-02T06:41:25.463Z,27.02
2023-05-02T06:43:56.307Z,27.07
2023-05-02T06:46:26.544Z,27.11
2023-05-02T06:48:56.834Z,27.16
2023-05-02T06:51:29.058Z,27.20
2023-05-02T06:53:59.056Z,27.25
2023-05-02T06:56:30.059Z,27.29
2023-05-02T06:59:00.462Z,27.34
2023-05-02T07:01:30.290Z,27.39
2023-05-02T07:04:00.559Z,27.44
2023-05-02T07:06:33.735Z,27.51
2023-05-02T07:09:04.087Z,27.55
2023-05-02T07:11:33.941Z,27.60
2023-05-02T07:14:04.543Z,27.65
2023-05-02T07:16:35.763Z,27.70
2023-05-02T07:19:07.346Z,27.74
2023-05-02T07:21:39.088Z,27.80
2023-05-02T07:24:09.364Z,27.84
2023-05-02T07:26:39.713Z,27.88
2023-05-02T07:29:10.063Z,27.92
2023-05-02T07:31:40.213Z,27.98
2023-05-02T07:34:10.449Z,28.02
2023-05-02T07:36:42.066Z,28.07
2023-05-02T07:39:12.638Z,28.08
2023-05-02T07:41:42.890Z,28.13
2023-05-02T07:44:13.614Z,28.16
2023-05-02T07:46:43.978Z,28.19
2023-05-02T07:49:14.762Z,28.21
2023-05-02T07:51:47.639Z,28.25
2023-05-02T07:54:21.721Z,28.27
2023-05-02T07:56:51.568Z,28.30
2023-05-02T07:59:21.175Z,28.33
2023-05-02T08:01:51.027Z,28.36
2023-05-02T08:04:21.165Z,28.40
2023-05-02T08:06:52.977Z,28.43
2023-05-02T08:09:23.369Z,28.45
2023-05-02T08:11:53.644Z,28.48
2023-05-02T08:14:24.104Z,28.50
2023-05-02T08:16:54.352Z,28.53
2023-05-02T08:19:23.870Z,28.55
2023-05-02T08:21:57.041Z,28.57
2023-05-02T08:24:27.320Z,28.59
2023-05-02T08:26:57.140Z,28.61
2023-05-02T08:29:27.507Z,28.62
2023-05-02T08:31:57.237Z,28.63
2023-05-02T08:34:27.845Z,28.66
2023-05-02T08:36:59.715Z,28.68
2023-05-02T08:39:30.003Z,28.71
2023-05-02T08:41:59.537Z,28.73
2023-05-02T08:44:29.738Z,28.76
2023-05-02T08:47:03.190Z,28.79
2023-05-02T08:49:35.424Z,28.82
2023-05-02T08:52:12.312Z,28.84
2023-05-02T08:54:43.376Z,28.85
2023-05-02T08:57:13.306Z,28.87
2023-05-02T08:59:45.519Z,28.90
2023-05-02T09:02:28.469Z,28.93
2023-05-02T09:05:06.459Z,28.95
2023-05-02T09:07:48.833Z,28.97
2023-05-02T09:10:18.934Z,28.99
2023-05-02T09:12:49.284Z,29.02
2023-05-02T09:15:20.963Z,29.04
2023-05-02T09:17:52.214Z,29.06
2023-05-02T09:20:22.256Z,29.07
2023-05-02T09:22:55.245Z,29.07
2023-05-02T09:25:26.417Z,29.08
2023-05-02T09:27:57.615Z,29.10
2023-05-02T09:30:29.094Z,29.11
2023-05-02T09:32:59.620Z,29.10
2023-05-02T09:35:30.027Z,29.10
2023-05-02T09:38:02.354Z,29.11
2023-05-02T09:40:33.349Z,29.12
2023-05-02T09:43:17.473Z,29.14
2023-05-02T09:46:00.970Z,29.13
2023-05-02T09:48:33.362Z,29.13
2023-05-02T09:51:03.647Z,29.14
2023-05-02T09:53:47.494Z,29.15
2023-05-02T09:56:18.574Z,29.16
2023-05-02T09:58:49.385Z,29.15
2023-05-02T10:01:20.935Z,29.17
2023-05-02T10:03:51.904Z,29.17
2023-05-02T10:06:23.491Z,29.16
2023-05-02T10:08:55.411Z,29.17
2023-05-02T10:11:26.496Z,29.15
2023-05-02T10:13:56.666Z,29.15
2023-05-02T10:16:33.608Z,29.15
2023-05-02T10:19:11.993Z,29.14
2023-05-02T10:21:46.218Z,29.14
2023-05-02T10:24:19.204Z,29.16
2023-05-02T10:26:50.651Z,29.17
2023-05-02T10:29:21.086Z,29.18
2023-05-02T10:31:52.462Z,29.20
2023-05-02T10:34:24.645Z,29.21
2023-05-02T10:36:55.049Z,29.22
2023-05-02T10:39:28.176Z,29.24
2023-05-02T10:42:02.643Z,29.25
2023-05-02T10:44:37.672Z,29.26
2023-05-02T10:47:22.729Z,29.27
2023-05-02T10:49:54.699Z,29.26
2023-05-02T10:52:35.027Z,29.28
2023-05-02T10:55:21.712Z,29.28
2023-05-02T10:58:24.416Z,29.25
2023-05-02T11:00:54.925Z,29.23
2023-05-02T11:04:00.009Z,29.24
2023-05-02T11:06:33.042Z,29.23
2023-05-02T11:09:37.813Z,29.25
2023-05-02T11:12:10.884Z,29.25
2023-05-02T11:14:51.083Z,29.28
2023-05-02T11:17:21.722Z,29.27
2023-05-02T11:20:32.453Z,29.27
2023-05-02T11:23:28.196Z,29.27
2023-05-02T11:26:00.838Z,29.26
2023-05-02T11:29:00.229Z,29.26
2023-05-02T11:32:07.425Z,29.23
2023-05-02T11:34:47.039Z,29.23
2023-05-02T11:37:18.065Z,29.22
2023-05-02T11:39:48.328Z,29.22
2023-05-02T11:42:42.242Z,29.22
2023-05-02T11:45:16.039Z,29.21
2023-05-02T11:47:47.917Z,29.20
2023-05-02T11:50:18.656Z,29.21
2023-05-02T11:52:49.301Z,29.20
2023-05-02T11:55:20.182Z,29.19
2023-05-02T11:57:51.067Z,29.21
2023-05-02T12:00:30.582Z,29.21
2023-05-02T12:03:00.931Z,29.21
2023-05-02T12:05:33.165Z,29.21
2023-05-02T12:08:03.688Z,29.21
2023-05-02T12:10:40.795Z,29.21
2023-05-02T12:13:12.034Z,29.20
2023-05-02T12:15:44.369Z,29.20
2023-05-02T12:18:16.269Z,29.19
2023-05-02T12:20:47.499Z,29.19
2023-05-02T12:23:17.803Z,29.18
2023-05-02T12:25:47.504Z,29.19
2023-05-02T12:28:19.789Z,29.19
2023-05-02T12:30:53.874Z,29.18
2023-05-02T12:33:23.942Z,29.17
2023-05-02T12:35:54.440Z,29.17
2023-05-02T12:38:26.243Z,29.16
2023-05-02T12:40:58.823Z,29.16
2023-05-02T12:43:29.334Z,29.15
2023-05-02T12:46:16.301Z,29.15
2023-05-02T12:48:46.935Z,29.13
2023-05-02T12:51:26.534Z,29.12
2023-05-02T12:53:57.105Z,29.09
2023-05-02T12:56:28.177Z,29.08
2023-05-02T12:59:01.401Z,29.05
2023-05-02T13:01:36.307Z,29.05
2023-05-02T13:04:07.369Z,29.03
2023-05-02T13:06:38.477Z,29.01
2023-05-02T13:09:08.518Z,29.00
2023-05-02T13:11:39.691Z,29.00
2023-05-02T13:14:09.507Z,28.99
2023-05-02T13:16:41.758Z,28.99
2023-05-02T13:19:12.234Z,28.97
2023-05-02T13:21:42.457Z,28.97
2023-05-02T13:24:12.203Z,28.96
2023-05-02T13:26:42.365Z,28.95
2023-05-02T13:29:13.118Z,28.95
2023-05-02T13:31:44.203Z,28.94
2023-05-02T13:34:14.589Z,28.92
2023-05-02T13:36:46.740Z,28.90
2023-05-02T13:39:17.082Z,28.89
2023-05-02T13:41:46.932Z,28.89
2023-05-02T13:44:17.277Z,28.88
2023-05-02T13:46:49.107Z,28.87
2023-05-02T13:49:19.640Z,28.86
2023-05-02T13:51:50.604Z,28.84
2023-05-02T13:54:21.363Z,28.83
2023-05-02T13:56:51.860Z,28.81
2023-05-02T13:59:22.265Z,28.80
2023-05-02T14:01:54.586Z,28.78
2023-05-02T14:04:25.298Z,28.78
2023-05-02T14:06:55.706Z,28.76
2023-05-02T14:09:25.805Z,28.73
2023-05-02T14:11:56.336Z,28.72
2023-05-02T14:14:26.265Z,28.69
2023-05-02T14:16:58.143Z,28.68
2023-05-02T14:19:28.331Z,28.66
2023-05-02T14:21:58.474Z,28.64
2023-05-02T14:24:28.703Z,28.63
2023-05-02T14:26:58.892Z,28.62
2023-05-02T14:29:29.372Z,28.61
2023-05-02T14:32:01.055Z,28.59
2023-05-02T14:34:31.539Z,28.58
2023-05-02T14:37:01.979Z,28.57
2023-05-02T14:39:32.237Z,28.55
2023-05-02T14:42:03.702Z,28.53
2023-05-02T14:44:34.316Z,28.53
2023-05-02T14:47:06.592Z,28.49
2023-05-02T14:49:37.258Z,28.47
2023-05-02T14:52:08.571Z,28.45
2023-05-02T14:54:38.929Z,28.43
2023-05-02T14:57:09.372Z,28.41
2023-05-02T14:59:40.737Z,28.40
2023-05-02T15:02:13.341Z,28.38
2023-05-02T15:04:43.288Z,28.37
2023-05-02T15:07:13.886Z,28.34
2023-05-02T15:09:43.959Z,28.34
2023-05-02T15:12:14.344Z,28.32
2023-05-02T15:14:43.970Z,28.31
2023-05-02T15:17:16.423Z,28.31
2023-05-02T15:19:46.391Z,28.29
2023-05-02T15:22:18.749Z,28.28
2023-05-02T15:24:48.665Z,28.27
2023-05-02T15:27:18.800Z,28.25
2023-05-02T15:29:49.057Z,28.24
2023-05-02T15:32:22.000Z,28.23
2023-05-02T15:34:52.724Z,28.19
2023-05-02T15:37:22.905Z,28.18
2023-05-02T15:39:52.998Z,28.17
2023-05-02T15:42:23.142Z,28.14
2023-05-02T15:44:54.461Z,28.14
2023-05-02T15:47:27.490Z,28.12
2023-05-02T15:49:58.672Z,28.11
2023-05-02T15:52:28.930Z,28.10
2023-05-02T15:54:59.421Z,28.09
2023-05-02T15:57:30.013Z,28.07
2023-05-02T15:59:59.948Z,28.06
2023-05-02T16:02:32.900Z,28.05
2023-05-02T16:05:03.067Z,28.02
2023-05-02T16:07:33.349Z,28.01
2023-05-02T16:10:03.526Z,28.00
2023-05-02T16:12:34.248Z,28.00
2023-05-02T16:15:04.282Z,27.98
2023-05-02T16:17:36.936Z,27.98
2023-05-02T16:20:08.978Z,27.96
2023-05-02T16:22:40.407Z,27.96
2023-05-02T16:25:10.976Z,27.94
2023-05-02T16:27:41.428Z,27.93
2023-05-02T16:30:13.431Z,27.92
2023-05-02T16:32:45.492Z,27.91
2023-05-02T16:35:16.329Z,27.88
2023-05-02T16:37:46.694Z,27.88
2023-05-02T16:40:17.203Z,27.87
2023-05-02T16:42:46.889Z,27.85
2023-05-02T16:45:16.683Z,27.85
2023-05-02T16:47:49.427Z,27.83
2023-05-02T16:50:20.740Z,27.83
2023-05-02T16:52:51.655Z,27.80
2023-05-02T16:55:21.899Z,27.81
2023-05-02T16:57:52.732Z,27.79
2023-05-02T17:00:25.784Z,27.78
2023-05-02T17:02:58.585Z,27.76
2023-05-02T17:05:28.700Z,27.75
2023-05-02T17:07:59.344Z,27.75
2023-05-02T17:10:29.367Z,27.73
2023-05-02T17:13:01.312Z,27.72
2023-05-02T17:15:31.337Z,27.71
2023-05-02T17:18:03.414Z,27.70
2023-05-02T17:20:34.151Z,27.69
2023-05-02T17:23:04.355Z,27.67
2023-05-02T17:25:34.484Z,27.66
2023-05-02T17:28:04.626Z,27.65
2023-05-02T17:30:35.217Z,27.63
2023-05-02T17:33:07.015Z,27.63
2023-05-02T17:35:37.579Z,27.61
2023-05-02T17:38:07.726Z,27.61
2023-05-02T17:40:38.383Z,27.60
2023-05-02T17:43:08.726Z,27.58
2023-05-02T17:45:39.918Z,27.57
2023-05-02T17:48:12.598Z,27.57
2023-05-02T17:50:43.691Z,27.55
2023-05-02T17:53:15.860Z,27.54
2023-05-02T17:55:46.350Z,27.53
2023-05-02T17:58:16.508Z,27.53
2023-05-02T18:00:46.764Z,27.51
2023-05-02T18:03:18.952Z,27.51
2023-05-02T18:05:49.214Z,27.50
2023-05-02T18:08:19.216Z,27.50
2023-05-02T18:10:49.909Z,27.48
2023-05-02T18:13:20.314Z,27.47
2023-05-02T18:15:59.254Z,27.47
2023-05-02T18:18:31.530Z,27.47
2023-05-02T18:21:02.032Z,27.45
2023-05-02T18:23:32.774Z,27.43
2023-05-02T18:26:02.581Z,27.43
2023-05-02T18:28:32.844Z,27.41
2023-05-02T18:31:04.549Z,27.40
2023-05-02T18:33:36.221Z,27.39
2023-05-02T18:36:06.904Z,27.38
2023-05-02T18:38:37.927Z,27.38
2023-05-02T18:41:09.861Z,27.37
2023-05-02T18:43:40.268Z,27.36
2023-05-02T18:46:12.376Z,27.36
2023-05-02T18:48:44.207Z,27.35
2023-05-02T18:51:14.521Z,27.35
2023-05-02T18:53:44.910Z,27.33
2023-05-02T18:56:15.800Z,27.33
2023-05-02T18:58:46.411Z,27.32
2023-05-02T19:01:17.719Z,27.31
2023-05-02T19:03:49.861Z,27.31
2023-05-02T19:06:22.158Z,27.30
2023-05-02T19:08:53.159Z,27.29
2023-05-02T19:11:23.224Z,27.29
2023-05-02T19:13:57.892Z,27.29
2023-05-02T19:16:29.458Z,27.28
2023-05-02T19:19:02.608Z,27.28
2023-05-02T19:21:34.421Z,27.28
2023-05-02T19:24:04.948Z,27.27
2023-05-02T19:26:35.106Z,27.26
2023-05-02T19:29:06.981Z,27.25
2023-05-02T19:31:37.581Z,27.26
2023-05-02T19:34:10.145Z,27.25
2023-05-02T19:36:40.480Z,27.24
2023-05-02T19:39:11.227Z,27.24
2023-05-02T19:41:43.325Z,27.24
2023-05-02T19:44:13.275Z,27.22
2023-05-02T19:46:43.700Z,27.22
2023-05-02T19:49:15.641Z,27.21
2023-05-02T19:51:45.597Z,27.20
2023-05-02T19:54:15.845Z,27.21
2023-05-02T19:56:49.174Z,27.20
2023-05-02T19:59:18.985Z,27.19
2023-05-02T20:01:50.158Z,27.18
2023-05-02T20:04:25.501Z,27.19
2023-05-02T20:06:56.019Z,27.18
2023-05-02T20:09:26.549Z,27.18
2023-05-02T20:11:56.949Z,27.17
2023-05-02T20:14:27.363Z,27.17
2023-05-02T20:17:01.816Z,27.17
2023-05-02T20:19:33.841Z,27.16
2023-05-02T20:22:03.856Z,27.16
2023-05-02T20:24:34.014Z,27.16
2023-05-02T20:27:05.210Z,27.15
2023-05-02T20:29:35.519Z,27.14
2023-05-02T20:32:06.151Z,27.13
2023-05-02T20:34:39.601Z,27.14
2023-05-02T20:37:10.853Z,27.14
2023-05-02T20:39:41.489Z,27.13
2023-05-02T20:42:11.948Z,27.12
2023-05-02T20:44:42.546Z,27.12
2023-05-02T20:47:13.068Z,27.12
2023-05-02T20:49:45.047Z,27.12
2023-05-02T20:52:14.785Z,27.10
2023-05-02T20:54:45.536Z,27.12
2023-05-02T20:57:18.469Z,27.10
2023-05-02T20:59:48.879Z,27.11
2023-05-02T21:02:18.499Z,27.10
2023-05-02T21:04:51.727Z,27.10
2023-05-02T21:07:21.877Z,27.09
2023-05-02T21:09:52.554Z,27.09
2023-05-02T21:12:23.484Z,27.08
2023-05-02T21:14:53.756Z,27.10
2023-05-02T21:17:26.626Z,27.09
2023-05-02T21:19:58.958Z,27.08
2023-05-02T21:22:29.017Z,27.07
2023-05-02T21:24:58.994Z,27.06
2023-05-02T21:27:29.383Z,27.06
2023-05-02T21:29:59.894Z,27.06
2023-05-02T21:32:30.311Z,27.05
2023-05-02T21:35:02.649Z,27.05
2023-05-02T21:37:34.752Z,27.06
2023-05-02T21:40:05.299Z,27.04
2023-05-02T21:42:35.636Z,27.05
2023-05-02T21:45:06.709Z,27.04
2023-05-02T21:47:36.390Z,27.04
2023-05-02T21:50:10.096Z,27.04
2023-05-02T21:52:40.099Z,27.03
2023-05-02T21:55:11.655Z,27.03
2023-05-02T21:57:43.888Z,27.03
2023-05-02T22:00:16.120Z,27.03
2023-05-02T22:02:46.703Z,27.01
2023-05-02T22:05:19.432Z,27.01
2023-05-02T22:07:52.760Z,27.01
2023-05-02T22:10:23.249Z,27.00
2023-05-02T22:12:53.538Z,26.99
2023-05-02T22:15:24.330Z,26.99
2023-05-02T22:17:55.471Z,26.97
2023-05-02T22:20:29.041Z,26.97
2023-05-02T22:22:58.964Z,26.97
2023-05-02T22:25:29.446Z,26.96
2023-05-02T22:28:01.467Z,26.94
2023-05-02T22:30:31.574Z,26.94
2023-05-02T22:33:02.091Z,26.94
2023-05-02T22:35:34.400Z,26.93
2023-05-02T22:38:04.311Z,26.92
2023-05-02T22:40:35.282Z,26.91
2023-05-02T22:43:05.631Z,26.91
2023-05-02T22:45:37.616Z,26.90
2023-05-02T22:48:08.633Z,26.90
2023-05-02T22:50:40.667Z,26.89
2023-05-02T22:53:11.053Z,26.88
2023-05-02T22:55:41.855Z,26.87
2023-05-02T22:58:12.182Z,26.86
2023-05-02T23:00:42.410Z,26.86
2023-05-02T23:03:12.962Z,26.85
2023-05-02T23:05:45.034Z,26.85
2023-05-02T23:08:14.849Z,26.85
2023-05-02T23:10:44.987Z,26.85
2023-05-02T23:13:15.941Z,26.85
2023-05-02T23:15:46.304Z,26.84
2023-05-02T23:18:17.049Z,26.85
2023-05-02T23:20:49.864Z,26.85
2023-05-02T23:23:19.681Z,26.84
2023-05-02T23:25:49.894Z,26.84
2023-05-02T23:28:20.165Z,26.84
2023-05-02T23:30:51.623Z,26.84
2023-05-02T23:33:21.639Z,26.82
2023-05-02T23:35:54.488Z,26.83
2023-05-02T23:38:24.304Z,26.82
2023-05-02T23:40:55.588Z,26.82
2023-05-02T23:43:26.364Z,26.82
2023-05-02T23:45:56.063Z,26.83
2023-05-02T23:48:26.298Z,26.83
2023-05-02T23:50:58.259Z,26.82
2023-05-02T23:53:28.636Z,26.81
2023-05-02T23:56:00.684Z,26.80
2023-05-02T23:58:30.972Z,26.81
